sensor_id;sensor_type;location;lat;lon;timestamp;P1;durP1;ratioP1;P2;durP2;ratioP2
4839;SDS011;2434;48.486;7.964;2023-03-21T00:00:52;3.30;;;2.00;;
4839;SDS011;2434;48.486;7.964;2023-03-21T00:03:23;4.23;;;2.17;;
4839;SDS011;2434;48.486;7.964;2023-03-21T00:05:52;3.47;;;2.30;;
4839;SDS011;2434;48.486;7.964;2023-03-21T00:08:21;3.03;;;2.20;;
4839;SDS011;2434;48.486;7.964;2023-03-21T00:10:54;4.53;;;2.80;;
4839;SDS011;2434;48.486;7.964;2023-03-21T00:13:23;3.80;;;2.83;;
4839;SDS011;2434;48.486;7.964;2023-03-21T00:15:53;4.60;;;3.83;;
4839;SDS011;2434;48.486;7.964;2023-03-21T00:18:44;3.40;;;2.47;;
4839;SDS011;2434;48.486;7.964;2023-03-21T00:21:14;7.70;;;4.90;;
4839;SDS011;2434;48.486;7.964;2023-03-21T00:24:04;2.83;;;2.10;;
4839;SDS011;2434;48.486;7.964;2023-03-21T00:26:33;2.37;;;1.60;;
4839;SDS011;2434;48.486;7.964;2023-03-21T00:29:03;8.30;;;2.00;;
4839;SDS011;2434;48.486;7.964;2023-03-21T00:31:32;2.20;;;1.67;;
4839;SDS011;2434;48.486;7.964;2023-03-21T00:34:02;1.90;;;1.60;;
4839;SDS011;2434;48.486;7.964;2023-03-21T00:36:30;3.40;;;1.67;;
4839;SDS011;2434;48.486;7.964;2023-03-21T00:38:58;2.70;;;1.73;;
4839;SDS011;2434;48.486;7.964;2023-03-21T00:41:27;2.50;;;1.60;;
4839;SDS011;2434;48.486;7.964;2023-03-21T00:44:12;3.40;;;1.90;;
4839;SDS011;2434;48.486;7.964;2023-03-21T00:46:41;3.37;;;2.20;;
4839;SDS011;2434;48.486;7.964;2023-03-21T00:49:31;3.93;;;2.03;;
4839;SDS011;2434;48.486;7.964;2023-03-21T00:52:01;6.83;;;1.70;;
4839;SDS011;2434;48.486;7.964;2023-03-21T00:54:45;2.57;;;1.70;;
4839;SDS011;2434;48.486;7.964;2023-03-21T00:57:13;3.90;;;1.83;;
4839;SDS011;2434;48.486;7.964;2023-03-21T00:59:42;2.33;;;1.63;;
4839;SDS011;2434;48.486;7.964;2023-03-21T01:02:11;4.07;;;1.93;;
4839;SDS011;2434;48.486;7.964;2023-03-21T01:04:53;3.10;;;1.67;;
4839;SDS011;2434;48.486;7.964;2023-03-21T01:07:21;7.90;;;1.80;;
4839;SDS011;2434;48.486;7.964;2023-03-21T01:09:49;4.00;;;1.67;;
4839;SDS011;2434;48.486;7.964;2023-03-21T01:12:18;1.93;;;1.50;;
4839;SDS011;2434;48.486;7.964;2023-03-21T01:14:46;2.40;;;1.80;;
4839;SDS011;2434;48.486;7.964;2023-03-21T01:17:14;4.00;;;1.53;;
4839;SDS011;2434;48.486;7.964;2023-03-21T01:19:42;1.97;;;1.50;;
4839;SDS011;2434;48.486;7.964;2023-03-21T01:22:19;6.83;;;1.67;;
4839;SDS011;2434;48.486;7.964;2023-03-21T01:24:47;3.33;;;1.57;;
4839;SDS011;2434;48.486;7.964;2023-03-21T01:27:28;2.20;;;1.90;;
4839;SDS011;2434;48.486;7.964;2023-03-21T01:29:56;5.10;;;2.00;;
4839;SDS011;2434;48.486;7.964;2023-03-21T01:32:25;5.20;;;1.60;;
4839;SDS011;2434;48.486;7.964;2023-03-21T01:34:53;3.00;;;2.30;;
4839;SDS011;2434;48.486;7.964;2023-03-21T01:37:23;3.70;;;1.97;;
4839;SDS011;2434;48.486;7.964;2023-03-21T01:39:52;2.40;;;1.80;;
4839;SDS011;2434;48.486;7.964;2023-03-21T01:42:20;3.03;;;2.00;;
4839;SDS011;2434;48.486;7.964;2023-03-21T01:44:50;4.10;;;2.00;;
4839;SDS011;2434;48.486;7.964;2023-03-21T01:47:21;3.70;;;2.50;;
4839;SDS011;2434;48.486;7.964;2023-03-21T01:50:06;2.60;;;2.07;;
4839;SDS011;2434;48.486;7.964;2023-03-21T01:52:54;3.57;;;1.97;;
4839;SDS011;2434;48.486;7.964;2023-03-21T01:55:26;3.33;;;2.37;;
4839;SDS011;2434;48.486;7.964;2023-03-21T01:58:24;4.60;;;2.73;;
4839;SDS011;2434;48.486;7.964;2023-03-21T02:01:05;4.97;;;2.60;;
4839;SDS011;2434;48.486;7.964;2023-03-21T02:03:38;3.90;;;2.20;;
4839;SDS011;2434;48.486;7.964;2023-03-21T02:06:37;5.80;;;3.57;;
4839;SDS011;2434;48.486;7.964;2023-03-21T02:09:35;4.20;;;2.30;;
4839;SDS011;2434;48.486;7.964;2023-03-21T02:12:11;3.13;;;2.13;;
4839;SDS011;2434;48.486;7.964;2023-03-21T02:14:42;2.03;;;1.60;;
4839;SDS011;2434;48.486;7.964;2023-03-21T02:17:32;3.93;;;2.03;;
4839;SDS011;2434;48.486;7.964;2023-03-21T02:26:32;3.73;;;2.53;;
4839;SDS011;2434;48.486;7.964;2023-03-21T02:32:33;3.23;;;2.67;;
4839;SDS011;2434;48.486;7.964;2023-03-21T02:35:23;6.83;;;2.27;;
4839;SDS011;2434;48.486;7.964;2023-03-21T02:38:19;5.63;;;2.47;;
4839;SDS011;2434;48.486;7.964;2023-03-21T02:40:58;2.33;;;2.13;;
4839;SDS011;2434;48.486;7.964;2023-03-21T02:43:45;3.40;;;2.30;;
4839;SDS011;2434;48.486;7.964;2023-03-21T02:46:25;3.30;;;2.40;;
4839;SDS011;2434;48.486;7.964;2023-03-21T02:49:14;4.23;;;2.47;;
4839;SDS011;2434;48.486;7.964;2023-03-21T02:51:48;4.57;;;2.87;;
4839;SDS011;2434;48.486;7.964;2023-03-21T02:54:23;4.13;;;2.33;;
4839;SDS011;2434;48.486;7.964;2023-03-21T02:57:10;3.80;;;1.90;;
4839;SDS011;2434;48.486;7.964;2023-03-21T02:59:39;6.67;;;2.53;;
4839;SDS011;2434;48.486;7.964;2023-03-21T03:02:25;2.33;;;1.40;;
4839;SDS011;2434;48.486;7.964;2023-03-21T03:04:54;1.90;;;1.57;;
4839;SDS011;2434;48.486;7.964;2023-03-21T03:07:29;6.67;;;1.83;;
4839;SDS011;2434;48.486;7.964;2023-03-21T03:10:13;2.10;;;1.60;;
4839;SDS011;2434;48.486;7.964;2023-03-21T03:12:55;2.40;;;1.60;;
4839;SDS011;2434;48.486;7.964;2023-03-21T03:15:33;3.80;;;1.87;;
4839;SDS011;2434;48.486;7.964;2023-03-21T03:18:09;2.90;;;1.50;;
4839;SDS011;2434;48.486;7.964;2023-03-21T03:20:44;2.03;;;1.57;;
4839;SDS011;2434;48.486;7.964;2023-03-21T03:23:19;3.50;;;1.60;;
4839;SDS011;2434;48.486;7.964;2023-03-21T03:25:56;2.27;;;1.63;;
4839;SDS011;2434;48.486;7.964;2023-03-21T03:28:32;3.10;;;1.57;;
4839;SDS011;2434;48.486;7.964;2023-03-21T03:31:10;6.03;;;1.80;;
4839;SDS011;2434;48.486;7.964;2023-03-21T03:33:49;2.10;;;1.50;;
4839;SDS011;2434;48.486;7.964;2023-03-21T03:36:22;2.00;;;1.80;;
4839;SDS011;2434;48.486;7.964;2023-03-21T03:39:03;2.37;;;1.90;;
4839;SDS011;2434;48.486;7.964;2023-03-21T03:41:39;2.70;;;1.60;;
4839;SDS011;2434;48.486;7.964;2023-03-21T03:44:35;3.10;;;2.03;;
4839;SDS011;2434;48.486;7.964;2023-03-21T03:47:06;3.70;;;1.87;;
4839;SDS011;2434;48.486;7.964;2023-03-21T03:49:45;3.57;;;1.50;;
4839;SDS011;2434;48.486;7.964;2023-03-21T03:52:19;2.10;;;1.50;;
4839;SDS011;2434;48.486;7.964;2023-03-21T03:54:59;1.90;;;1.60;;
4839;SDS011;2434;48.486;7.964;2023-03-21T03:57:33;4.00;;;2.40;;
4839;SDS011;2434;48.486;7.964;2023-03-21T04:00:02;4.90;;;2.70;;
4839;SDS011;2434;48.486;7.964;2023-03-21T04:02:43;4.80;;;2.70;;
4839;SDS011;2434;48.486;7.964;2023-03-21T04:05:16;3.20;;;2.17;;
4839;SDS011;2434;48.486;7.964;2023-03-21T04:07:46;5.13;;;2.57;;
4839;SDS011;2434;48.486;7.964;2023-03-21T04:10:17;3.27;;;2.07;;
4839;SDS011;2434;48.486;7.964;2023-03-21T04:12:49;2.23;;;1.77;;
4839;SDS011;2434;48.486;7.964;2023-03-21T04:15:25;4.43;;;2.40;;
4839;SDS011;2434;48.486;7.964;2023-03-21T04:18:01;3.87;;;2.07;;
4839;SDS011;2434;48.486;7.964;2023-03-21T04:20:30;1.80;;;1.37;;
4839;SDS011;2434;48.486;7.964;2023-03-21T04:23:04;3.53;;;1.30;;
4839;SDS011;2434;48.486;7.964;2023-03-21T04:25:33;7.07;;;2.10;;
4839;SDS011;2434;48.486;7.964;2023-03-21T04:28:07;3.00;;;1.67;;
4839;SDS011;2434;48.486;7.964;2023-03-21T04:30:45;2.30;;;2.10;;
4839;SDS011;2434;48.486;7.964;2023-03-21T04:33:30;2.33;;;1.80;;
4839;SDS011;2434;48.486;7.964;2023-03-21T04:36:05;2.50;;;1.40;;
4839;SDS011;2434;48.486;7.964;2023-03-21T04:38:36;2.23;;;1.37;;
4839;SDS011;2434;48.486;7.964;2023-03-21T04:41:05;2.00;;;1.70;;
4839;SDS011;2434;48.486;7.964;2023-03-21T04:43:34;1.83;;;1.47;;
4839;SDS011;2434;48.486;7.964;2023-03-21T04:46:03;1.57;;;1.40;;
4839;SDS011;2434;48.486;7.964;2023-03-21T04:48:31;1.50;;;1.20;;
4839;SDS011;2434;48.486;7.964;2023-03-21T04:51:00;1.73;;;1.30;;
4839;SDS011;2434;48.486;7.964;2023-03-21T04:53:29;3.13;;;1.40;;
4839;SDS011;2434;48.486;7.964;2023-03-21T04:55:58;3.23;;;1.80;;
4839;SDS011;2434;48.486;7.964;2023-03-21T04:58:26;3.03;;;1.70;;
4839;SDS011;2434;48.486;7.964;2023-03-21T05:00:57;1.83;;;1.47;;
4839;SDS011;2434;48.486;7.964;2023-03-21T05:03:27;2.40;;;1.60;;
4839;SDS011;2434;48.486;7.964;2023-03-21T05:05:59;4.10;;;1.70;;
4839;SDS011;2434;48.486;7.964;2023-03-21T05:08:28;3.00;;;1.93;;
4839;SDS011;2434;48.486;7.964;2023-03-21T05:10:56;2.53;;;1.60;;
4839;SDS011;2434;48.486;7.964;2023-03-21T05:13:26;2.33;;;1.70;;
4839;SDS011;2434;48.486;7.964;2023-03-21T05:15:54;3.93;;;2.20;;
4839;SDS011;2434;48.486;7.964;2023-03-21T05:18:24;5.30;;;1.97;;
4839;SDS011;2434;48.486;7.964;2023-03-21T05:21:05;4.70;;;1.90;;
4839;SDS011;2434;48.486;7.964;2023-03-21T05:23:37;3.30;;;1.87;;
4839;SDS011;2434;48.486;7.964;2023-03-21T05:26:08;4.23;;;1.90;;
4839;SDS011;2434;48.486;7.964;2023-03-21T05:28:54;3.00;;;2.17;;
4839;SDS011;2434;48.486;7.964;2023-03-21T05:31:23;3.30;;;2.27;;
4839;SDS011;2434;48.486;7.964;2023-03-21T05:34:03;2.33;;;1.80;;
4839;SDS011;2434;48.486;7.964;2023-03-21T05:36:33;3.20;;;1.90;;
4839;SDS011;2434;48.486;7.964;2023-03-21T05:39:05;3.30;;;2.27;;
4839;SDS011;2434;48.486;7.964;2023-03-21T05:41:37;2.80;;;1.93;;
4839;SDS011;2434;48.486;7.964;2023-03-21T05:44:06;3.30;;;2.43;;
4839;SDS011;2434;48.486;7.964;2023-03-21T05:46:36;2.97;;;2.37;;
4839;SDS011;2434;48.486;7.964;2023-03-21T05:49:06;4.13;;;2.10;;
4839;SDS011;2434;48.486;7.964;2023-03-21T05:51:34;2.47;;;1.70;;
4839;SDS011;2434;48.486;7.964;2023-03-21T05:54:03;2.30;;;1.90;;
4839;SDS011;2434;48.486;7.964;2023-03-21T05:56:33;2.97;;;2.00;;
4839;SDS011;2434;48.486;7.964;2023-03-21T05:59:04;3.50;;;2.20;;
4839;SDS011;2434;48.486;7.964;2023-03-21T06:01:38;7.50;;;1.90;;
4839;SDS011;2434;48.486;7.964;2023-03-21T06:04:13;7.00;;;2.33;;
4839;SDS011;2434;48.486;7.964;2023-03-21T06:06:42;2.43;;;1.80;;
4839;SDS011;2434;48.486;7.964;2023-03-21T06:09:10;2.80;;;1.90;;
4839;SDS011;2434;48.486;7.964;2023-03-21T06:11:45;4.17;;;2.60;;
4839;SDS011;2434;48.486;7.964;2023-03-21T06:14:37;4.10;;;1.90;;
4839;SDS011;2434;48.486;7.964;2023-03-21T06:17:31;3.30;;;2.07;;
4839;SDS011;2434;48.486;7.964;2023-03-21T06:20:06;4.27;;;2.47;;
4839;SDS011;2434;48.486;7.964;2023-03-21T06:22:44;3.17;;;2.47;;
4839;SDS011;2434;48.486;7.964;2023-03-21T06:25:12;2.00;;;1.70;;
4839;SDS011;2434;48.486;7.964;2023-03-21T06:27:41;2.97;;;1.90;;
4839;SDS011;2434;48.486;7.964;2023-03-21T06:30:10;3.63;;;2.50;;
4839;SDS011;2434;48.486;7.964;2023-03-21T06:32:59;5.70;;;2.20;;
4839;SDS011;2434;48.486;7.964;2023-03-21T06:35:29;5.00;;;2.20;;
4839;SDS011;2434;48.486;7.964;2023-03-21T06:37:57;2.50;;;1.90;;
4839;SDS011;2434;48.486;7.964;2023-03-21T06:40:30;1.97;;;1.77;;
4839;SDS011;2434;48.486;7.964;2023-03-21T06:42:58;3.20;;;2.03;;
4839;SDS011;2434;48.486;7.964;2023-03-21T06:45:26;3.87;;;2.20;;
4839;SDS011;2434;48.486;7.964;2023-03-21T06:47:54;3.57;;;2.17;;
4839;SDS011;2434;48.486;7.964;2023-03-21T06:50:41;11.50;;;3.47;;
4839;SDS011;2434;48.486;7.964;2023-03-21T06:53:09;3.40;;;2.43;;
4839;SDS011;2434;48.486;7.964;2023-03-21T06:55:57;2.77;;;2.17;;
4839;SDS011;2434;48.486;7.964;2023-03-21T06:58:26;4.90;;;2.27;;
4839;SDS011;2434;48.486;7.964;2023-03-21T07:00:56;3.73;;;2.57;;
4839;SDS011;2434;48.486;7.964;2023-03-21T07:03:25;4.00;;;2.30;;
4839;SDS011;2434;48.486;7.964;2023-03-21T07:05:56;3.17;;;2.20;;
4839;SDS011;2434;48.486;7.964;2023-03-21T07:08:24;4.70;;;2.40;;
4839;SDS011;2434;48.486;7.964;2023-03-21T07:10:54;3.57;;;2.50;;
4839;SDS011;2434;48.486;7.964;2023-03-21T07:13:23;4.67;;;2.40;;
4839;SDS011;2434;48.486;7.964;2023-03-21T07:15:56;2.60;;;1.97;;
4839;SDS011;2434;48.486;7.964;2023-03-21T07:18:25;2.83;;;2.33;;
4839;SDS011;2434;48.486;7.964;2023-03-21T07:20:53;3.73;;;2.40;;
4839;SDS011;2434;48.486;7.964;2023-03-21T07:23:23;4.30;;;2.90;;
4839;SDS011;2434;48.486;7.964;2023-03-21T07:25:53;5.83;;;2.70;;
4839;SDS011;2434;48.486;7.964;2023-03-21T07:28:21;3.00;;;2.53;;
4839;SDS011;2434;48.486;7.964;2023-03-21T07:30:51;3.93;;;2.63;;
4839;SDS011;2434;48.486;7.964;2023-03-21T07:33:21;4.43;;;2.50;;
4839;SDS011;2434;48.486;7.964;2023-03-21T07:35:50;3.03;;;2.30;;
4839;SDS011;2434;48.486;7.964;2023-03-21T07:38:20;6.07;;;3.33;;
4839;SDS011;2434;48.486;7.964;2023-03-21T07:40:50;3.83;;;2.53;;
4839;SDS011;2434;48.486;7.964;2023-03-21T07:43:20;2.40;;;1.90;;
4839;SDS011;2434;48.486;7.964;2023-03-21T07:45:53;5.87;;;2.43;;
4839;SDS011;2434;48.486;7.964;2023-03-21T07:48:25;7.23;;;2.40;;
4839;SDS011;2434;48.486;7.964;2023-03-21T07:50:53;4.10;;;2.47;;
4839;SDS011;2434;48.486;7.964;2023-03-21T07:53:23;5.70;;;2.60;;
4839;SDS011;2434;48.486;7.964;2023-03-21T07:55:51;4.97;;;3.23;;
4839;SDS011;2434;48.486;7.964;2023-03-21T07:58:21;5.83;;;3.33;;
4839;SDS011;2434;48.486;7.964;2023-03-21T08:00:50;5.50;;;2.77;;
4839;SDS011;2434;48.486;7.964;2023-03-21T08:03:18;6.20;;;3.13;;
4839;SDS011;2434;48.486;7.964;2023-03-21T08:05:47;3.93;;;2.47;;
4839;SDS011;2434;48.486;7.964;2023-03-21T08:08:15;3.40;;;1.97;;
4839;SDS011;2434;48.486;7.964;2023-03-21T08:10:44;5.60;;;1.83;;
4839;SDS011;2434;48.486;7.964;2023-03-21T08:13:12;2.40;;;1.90;;
4839;SDS011;2434;48.486;7.964;2023-03-21T08:15:41;3.80;;;2.50;;
4839;SDS011;2434;48.486;7.964;2023-03-21T08:18:09;2.40;;;2.00;;
4839;SDS011;2434;48.486;7.964;2023-03-21T08:20:37;2.60;;;2.00;;
4839;SDS011;2434;48.486;7.964;2023-03-21T08:23:06;3.27;;;1.90;;
4839;SDS011;2434;48.486;7.964;2023-03-21T08:25:35;4.40;;;2.40;;
4839;SDS011;2434;48.486;7.964;2023-03-21T08:28:06;2.47;;;2.00;;
4839;SDS011;2434;48.486;7.964;2023-03-21T08:30:34;1.97;;;1.60;;
4839;SDS011;2434;48.486;7.964;2023-03-21T08:33:04;3.20;;;2.27;;
4839;SDS011;2434;48.486;7.964;2023-03-21T08:35:33;3.63;;;1.93;;
4839;SDS011;2434;48.486;7.964;2023-03-21T08:38:05;3.67;;;2.20;;
4839;SDS011;2434;48.486;7.964;2023-03-21T08:40:34;5.23;;;2.00;;
4839;SDS011;2434;48.486;7.964;2023-03-21T08:43:03;6.60;;;2.43;;
4839;SDS011;2434;48.486;7.964;2023-03-21T08:45:32;5.57;;;1.90;;
4839;SDS011;2434;48.486;7.964;2023-03-21T08:48:01;1.70;;;1.60;;
4839;SDS011;2434;48.486;7.964;2023-03-21T08:50:29;2.97;;;1.80;;
4839;SDS011;2434;48.486;7.964;2023-03-21T08:52:57;2.73;;;2.00;;
4839;SDS011;2434;48.486;7.964;2023-03-21T08:55:26;4.03;;;1.90;;
4839;SDS011;2434;48.486;7.964;2023-03-21T08:57:54;6.27;;;2.33;;
4839;SDS011;2434;48.486;7.964;2023-03-21T09:00:23;5.57;;;2.60;;
4839;SDS011;2434;48.486;7.964;2023-03-21T09:02:54;5.40;;;2.10;;
4839;SDS011;2434;48.486;7.964;2023-03-21T09:05:24;4.83;;;2.30;;
4839;SDS011;2434;48.486;7.964;2023-03-21T09:07:53;3.33;;;2.37;;
4839;SDS011;2434;48.486;7.964;2023-03-21T09:10:22;5.20;;;2.70;;
4839;SDS011;2434;48.486;7.964;2023-03-21T09:12:51;7.30;;;3.20;;
4839;SDS011;2434;48.486;7.964;2023-03-21T09:15:21;4.90;;;3.10;;
4839;SDS011;2434;48.486;7.964;2023-03-21T09:17:51;5.87;;;3.90;;
4839;SDS011;2434;48.486;7.964;2023-03-21T09:20:21;5.13;;;2.73;;
4839;SDS011;2434;48.486;7.964;2023-03-21T09:22:56;3.80;;;2.53;;
4839;SDS011;2434;48.486;7.964;2023-03-21T09:25:26;3.17;;;2.40;;
4839;SDS011;2434;48.486;7.964;2023-03-21T09:28:00;5.37;;;2.80;;
4839;SDS011;2434;48.486;7.964;2023-03-21T09:30:30;3.43;;;2.03;;
4839;SDS011;2434;48.486;7.964;2023-03-21T09:32:59;7.97;;;2.70;;
4839;SDS011;2434;48.486;7.964;2023-03-21T09:35:30;9.43;;;3.43;;
4839;SDS011;2434;48.486;7.964;2023-03-21T09:38:00;2.33;;;1.83;;
4839;SDS011;2434;48.486;7.964;2023-03-21T09:40:33;5.33;;;2.37;;
4839;SDS011;2434;48.486;7.964;2023-03-21T09:43:14;3.87;;;3.03;;
4839;SDS011;2434;48.486;7.964;2023-03-21T09:45:51;4.70;;;2.70;;
4839;SDS011;2434;48.486;7.964;2023-03-21T09:48:28;4.03;;;2.83;;
4839;SDS011;2434;48.486;7.964;2023-03-21T09:51:11;4.20;;;2.70;;
4839;SDS011;2434;48.486;7.964;2023-03-21T09:53:43;4.23;;;2.70;;
4839;SDS011;2434;48.486;7.964;2023-03-21T09:56:15;2.50;;;2.30;;
4839;SDS011;2434;48.486;7.964;2023-03-21T09:58:45;4.20;;;2.80;;
4839;SDS011;2434;48.486;7.964;2023-03-21T10:01:19;6.43;;;2.57;;
4839;SDS011;2434;48.486;7.964;2023-03-21T10:03:52;5.07;;;2.60;;
4839;SDS011;2434;48.486;7.964;2023-03-21T10:06:23;3.47;;;2.57;;
4839;SDS011;2434;48.486;7.964;2023-03-21T10:08:57;4.80;;;2.83;;
4839;SDS011;2434;48.486;7.964;2023-03-21T10:11:28;5.00;;;2.73;;
4839;SDS011;2434;48.486;7.964;2023-03-21T10:14:12;3.47;;;2.30;;
4839;SDS011;2434;48.486;7.964;2023-03-21T10:16:47;3.80;;;2.60;;
4839;SDS011;2434;48.486;7.964;2023-03-21T10:19:25;5.07;;;2.80;;
4839;SDS011;2434;48.486;7.964;2023-03-21T10:21:56;5.07;;;2.70;;
4839;SDS011;2434;48.486;7.964;2023-03-21T10:24:28;6.47;;;2.80;;
4839;SDS011;2434;48.486;7.964;2023-03-21T10:26:59;3.13;;;2.20;;
4839;SDS011;2434;48.486;7.964;2023-03-21T10:29:30;5.63;;;2.43;;
4839;SDS011;2434;48.486;7.964;2023-03-21T10:32:06;3.07;;;2.07;;
4839;SDS011;2434;48.486;7.964;2023-03-21T10:34:39;3.87;;;2.20;;
4839;SDS011;2434;48.486;7.964;2023-03-21T10:37:10;6.53;;;2.30;;
4839;SDS011;2434;48.486;7.964;2023-03-21T10:39:42;6.77;;;2.37;;
4839;SDS011;2434;48.486;7.964;2023-03-21T10:42:16;2.90;;;2.27;;
4839;SDS011;2434;48.486;7.964;2023-03-21T10:44:47;4.20;;;2.23;;
4839;SDS011;2434;48.486;7.964;2023-03-21T10:47:18;3.83;;;2.30;;
4839;SDS011;2434;48.486;7.964;2023-03-21T10:49:48;3.20;;;2.00;;
4839;SDS011;2434;48.486;7.964;2023-03-21T10:52:36;5.23;;;2.10;;
4839;SDS011;2434;48.486;7.964;2023-03-21T10:55:14;4.63;;;1.90;;
4839;SDS011;2434;48.486;7.964;2023-03-21T10:57:45;5.00;;;3.10;;
4839;SDS011;2434;48.486;7.964;2023-03-21T11:00:17;3.50;;;2.23;;
4839;SDS011;2434;48.486;7.964;2023-03-21T11:02:48;3.40;;;2.10;;
4839;SDS011;2434;48.486;7.964;2023-03-21T11:05:19;4.37;;;2.73;;
4839;SDS011;2434;48.486;7.964;2023-03-21T11:07:57;4.07;;;2.57;;
4839;SDS011;2434;48.486;7.964;2023-03-21T11:10:27;4.77;;;3.17;;
4839;SDS011;2434;48.486;7.964;2023-03-21T11:13:00;6.60;;;3.10;;
4839;SDS011;2434;48.486;7.964;2023-03-21T11:15:33;9.40;;;2.70;;
4839;SDS011;2434;48.486;7.964;2023-03-21T11:18:14;3.30;;;2.20;;
4839;SDS011;2434;48.486;7.964;2023-03-21T11:20:49;3.80;;;2.50;;
4839;SDS011;2434;48.486;7.964;2023-03-21T11:23:22;5.93;;;2.97;;
4839;SDS011;2434;48.486;7.964;2023-03-21T11:25:54;4.40;;;3.20;;
4839;SDS011;2434;48.486;7.964;2023-03-21T11:28:25;4.27;;;2.73;;
4839;SDS011;2434;48.486;7.964;2023-03-21T11:31:00;7.53;;;2.30;;
4839;SDS011;2434;48.486;7.964;2023-03-21T11:33:30;2.87;;;2.40;;
4839;SDS011;2434;48.486;7.964;2023-03-21T11:36:02;5.17;;;2.67;;
4839;SDS011;2434;48.486;7.964;2023-03-21T11:38:36;3.50;;;2.33;;
4839;SDS011;2434;48.486;7.964;2023-03-21T11:41:05;4.93;;;2.63;;
4839;SDS011;2434;48.486;7.964;2023-03-21T11:43:34;3.90;;;2.73;;
4839;SDS011;2434;48.486;7.964;2023-03-21T11:46:04;9.20;;;2.80;;
4839;SDS011;2434;48.486;7.964;2023-03-21T11:48:37;4.27;;;2.60;;
4839;SDS011;2434;48.486;7.964;2023-03-21T11:51:09;4.80;;;2.70;;
4839;SDS011;2434;48.486;7.964;2023-03-21T11:53:48;5.93;;;2.63;;
4839;SDS011;2434;48.486;7.964;2023-03-21T11:56:25;3.03;;;2.53;;
4839;SDS011;2434;48.486;7.964;2023-03-21T11:58:59;3.17;;;2.43;;
4839;SDS011;2434;48.486;7.964;2023-03-21T12:01:53;3.60;;;2.27;;
4839;SDS011;2434;48.486;7.964;2023-03-21T12:04:37;4.97;;;2.60;;
4839;SDS011;2434;48.486;7.964;2023-03-21T12:10:05;2.03;;;1.63;;
4839;SDS011;2434;48.486;7.964;2023-03-21T12:13:04;2.77;;;1.83;;
4839;SDS011;2434;48.486;7.964;2023-03-21T12:15:49;4.43;;;2.20;;
4839;SDS011;2434;48.486;7.964;2023-03-21T12:18:30;2.30;;;2.10;;
4839;SDS011;2434;48.486;7.964;2023-03-21T12:21:11;2.93;;;2.17;;
4839;SDS011;2434;48.486;7.964;2023-03-21T12:23:48;5.50;;;2.30;;
4839;SDS011;2434;48.486;7.964;2023-03-21T12:26:30;3.60;;;2.70;;
4839;SDS011;2434;48.486;7.964;2023-03-21T12:29:09;2.73;;;2.23;;
4839;SDS011;2434;48.486;7.964;2023-03-21T12:31:59;6.67;;;2.63;;
4839;SDS011;2434;48.486;7.964;2023-03-21T12:34:48;4.73;;;2.80;;
4839;SDS011;2434;48.486;7.964;2023-03-21T12:37:31;2.90;;;2.60;;
4839;SDS011;2434;48.486;7.964;2023-03-21T12:40:08;5.53;;;2.60;;
4839;SDS011;2434;48.486;7.964;2023-03-21T12:42:51;4.40;;;2.80;;
4839;SDS011;2434;48.486;7.964;2023-03-21T12:45:34;3.63;;;2.60;;
4839;SDS011;2434;48.486;7.964;2023-03-21T12:48:14;3.33;;;2.80;;
4839;SDS011;2434;48.486;7.964;2023-03-21T12:50:47;3.40;;;2.40;;
4839;SDS011;2434;48.486;7.964;2023-03-21T12:53:29;6.70;;;3.00;;
4839;SDS011;2434;48.486;7.964;2023-03-21T12:56:06;4.07;;;2.80;;
4839;SDS011;2434;48.486;7.964;2023-03-21T12:58:42;4.00;;;2.47;;
4839;SDS011;2434;48.486;7.964;2023-03-21T13:01:14;5.20;;;2.90;;
4839;SDS011;2434;48.486;7.964;2023-03-21T13:03:45;4.70;;;2.37;;
4839;SDS011;2434;48.486;7.964;2023-03-21T13:06:18;5.57;;;2.40;;
4839;SDS011;2434;48.486;7.964;2023-03-21T13:08:50;2.90;;;2.17;;
4839;SDS011;2434;48.486;7.964;2023-03-21T13:11:23;3.60;;;2.20;;
4839;SDS011;2434;48.486;7.964;2023-03-21T13:13:56;3.00;;;1.70;;
4839;SDS011;2434;48.486;7.964;2023-03-21T13:16:29;3.10;;;1.83;;
4839;SDS011;2434;48.486;7.964;2023-03-21T13:19:07;3.27;;;1.50;;
4839;SDS011;2434;48.486;7.964;2023-03-21T13:21:45;2.20;;;1.73;;
4839;SDS011;2434;48.486;7.964;2023-03-21T13:24:26;3.17;;;1.73;;
4839;SDS011;2434;48.486;7.964;2023-03-21T13:27:00;2.77;;;1.70;;
4839;SDS011;2434;48.486;7.964;2023-03-21T13:29:40;2.33;;;1.50;;
4839;SDS011;2434;48.486;7.964;2023-03-21T13:32:14;2.20;;;1.70;;
4839;SDS011;2434;48.486;7.964;2023-03-21T13:34:52;2.73;;;1.47;;
4839;SDS011;2434;48.486;7.964;2023-03-21T13:37:21;5.13;;;2.00;;
4839;SDS011;2434;48.486;7.964;2023-03-21T13:39:53;2.70;;;1.20;;
4839;SDS011;2434;48.486;7.964;2023-03-21T13:42:28;4.60;;;1.37;;
4839;SDS011;2434;48.486;7.964;2023-03-21T13:45:05;4.30;;;1.67;;
4839;SDS011;2434;48.486;7.964;2023-03-21T13:47:39;1.73;;;1.40;;
4839;SDS011;2434;48.486;7.964;2023-03-21T13:50:20;3.33;;;1.50;;
4839;SDS011;2434;48.486;7.964;2023-03-21T13:53:15;4.53;;;1.80;;
4839;SDS011;2434;48.486;7.964;2023-03-21T13:58:50;1.57;;;1.37;;
4839;SDS011;2434;48.486;7.964;2023-03-21T14:01:31;4.70;;;2.20;;
4839;SDS011;2434;48.486;7.964;2023-03-21T14:04:14;3.23;;;1.50;;
4839;SDS011;2434;48.486;7.964;2023-03-21T14:06:45;2.67;;;1.80;;
4839;SDS011;2434;48.486;7.964;2023-03-21T14:09:23;3.50;;;1.77;;
4839;SDS011;2434;48.486;7.964;2023-03-21T14:11:53;1.80;;;1.40;;
4839;SDS011;2434;48.486;7.964;2023-03-21T14:14:32;2.20;;;1.67;;
4839;SDS011;2434;48.486;7.964;2023-03-21T14:17:13;2.27;;;1.43;;
4839;SDS011;2434;48.486;7.964;2023-03-21T14:19:51;6.83;;;2.50;;
4839;SDS011;2434;48.486;7.964;2023-03-21T14:22:20;3.27;;;2.17;;
4839;SDS011;2434;48.486;7.964;2023-03-21T14:24:53;5.00;;;2.03;;
4839;SDS011;2434;48.486;7.964;2023-03-21T14:27:23;3.20;;;1.40;;
4839;SDS011;2434;48.486;7.964;2023-03-21T14:29:57;3.40;;;1.40;;
4839;SDS011;2434;48.486;7.964;2023-03-21T14:32:28;4.77;;;1.80;;
4839;SDS011;2434;48.486;7.964;2023-03-21T14:34:58;2.50;;;1.93;;
4839;SDS011;2434;48.486;7.964;2023-03-21T14:37:29;2.07;;;1.20;;
4839;SDS011;2434;48.486;7.964;2023-03-21T14:39:59;6.07;;;1.80;;
4839;SDS011;2434;48.486;7.964;2023-03-21T14:42:32;2.07;;;1.43;;
4839;SDS011;2434;48.486;7.964;2023-03-21T14:45:10;2.87;;;1.67;;
4839;SDS011;2434;48.486;7.964;2023-03-21T14:47:58;3.40;;;1.70;;
4839;SDS011;2434;48.486;7.964;2023-03-21T14:50:29;2.20;;;1.30;;
4839;SDS011;2434;48.486;7.964;2023-03-21T14:53:02;3.07;;;1.37;;
4839;SDS011;2434;48.486;7.964;2023-03-21T14:55:32;3.07;;;1.80;;
4839;SDS011;2434;48.486;7.964;2023-03-21T14:58:09;2.47;;;1.37;;
4839;SDS011;2434;48.486;7.964;2023-03-21T15:00:39;2.43;;;1.53;;
4839;SDS011;2434;48.486;7.964;2023-03-21T15:03:10;2.83;;;1.60;;
4839;SDS011;2434;48.486;7.964;2023-03-21T15:05:41;2.37;;;1.30;;
4839;SDS011;2434;48.486;7.964;2023-03-21T15:08:12;4.37;;;1.57;;
4839;SDS011;2434;48.486;7.964;2023-03-21T15:10:52;3.23;;;2.00;;
4839;SDS011;2434;48.486;7.964;2023-03-21T15:13:32;5.73;;;2.40;;
4839;SDS011;2434;48.486;7.964;2023-03-21T15:16:03;2.13;;;1.40;;
4839;SDS011;2434;48.486;7.964;2023-03-21T15:18:34;4.53;;;1.70;;
4839;SDS011;2434;48.486;7.964;2023-03-21T15:21:04;3.10;;;1.50;;
4839;SDS011;2434;48.486;7.964;2023-03-21T15:23:36;3.87;;;1.70;;
4839;SDS011;2434;48.486;7.964;2023-03-21T15:26:06;6.33;;;1.70;;
4839;SDS011;2434;48.486;7.964;2023-03-21T15:28:39;3.93;;;2.00;;
4839;SDS011;2434;48.486;7.964;2023-03-21T15:31:15;1.97;;;1.50;;
4839;SDS011;2434;48.486;7.964;2023-03-21T15:33:49;2.57;;;1.20;;
4839;SDS011;2434;48.486;7.964;2023-03-21T15:36:20;2.57;;;1.30;;
4839;SDS011;2434;48.486;7.964;2023-03-21T15:38:50;2.20;;;1.43;;
4839;SDS011;2434;48.486;7.964;2023-03-21T15:41:26;2.17;;;1.27;;
4839;SDS011;2434;48.486;7.964;2023-03-21T15:44:00;3.30;;;1.37;;
4839;SDS011;2434;48.486;7.964;2023-03-21T15:46:32;3.87;;;2.43;;
4839;SDS011;2434;48.486;7.964;2023-03-21T15:49:18;3.87;;;2.60;;
4839;SDS011;2434;48.486;7.964;2023-03-21T15:51:51;4.43;;;2.60;;
4839;SDS011;2434;48.486;7.964;2023-03-21T15:54:23;2.13;;;1.40;;
4839;SDS011;2434;48.486;7.964;2023-03-21T15:56:54;2.43;;;1.50;;
4839;SDS011;2434;48.486;7.964;2023-03-21T15:59:27;3.20;;;1.30;;
4839;SDS011;2434;48.486;7.964;2023-03-21T16:02:00;2.00;;;1.30;;
4839;SDS011;2434;48.486;7.964;2023-03-21T16:04:30;3.80;;;1.57;;
4839;SDS011;2434;48.486;7.964;2023-03-21T16:06:59;4.63;;;1.47;;
4839;SDS011;2434;48.486;7.964;2023-03-21T16:09:37;3.20;;;1.47;;
4839;SDS011;2434;48.486;7.964;2023-03-21T16:12:08;3.60;;;1.60;;